sensor_id;sensor_type;location;lat;lon;timestamp;temperature;humidity
43920;DHT22;29578;51.946;5.874;2022-08-07T00:00:08;15.70;62.40
43920;DHT22;29578;51.946;5.874;2022-08-07T00:02:33;15.70;62.60
43920;DHT22;29578;51.946;5.874;2022-08-07T00:04:59;15.70;62.70
43920;DHT22;29578;51.946;5.874;2022-08-07T00:07:25;15.70;62.80
43920;DHT22;29578;51.946;5.874;2022-08-07T00:09:51;15.70;62.80
43920;DHT22;29578;51.946;5.874;2022-08-07T00:12:17;15.70;62.80
43920;DHT22;29578;51.946;5.874;2022-08-07T00:14:42;15.60;62.90
43920;DHT22;29578;51.946;5.874;2022-08-07T00:17:08;15.60;62.90
43920;DHT22;29578;51.946;5.874;2022-08-07T00:19:34;15.60;63.00
43920;DHT22;29578;51.946;5.874;2022-08-07T00:21:59;15.60;63.00
43920;DHT22;29578;51.946;5.874;2022-08-07T00:24:25;15.60;63.00
43920;DHT22;29578;51.946;5.874;2022-08-07T00:26:51;15.50;63.10
43920;DHT22;29578;51.946;5.874;2022-08-07T00:29:17;15.50;63.20
43920;DHT22;29578;51.946;5.874;2022-08-07T00:31:44;15.50;63.30
43920;DHT22;29578;51.946;5.874;2022-08-07T00:34:10;15.40;63.40
43920;DHT22;29578;51.946;5.874;2022-08-07T00:36:37;15.40;63.50
43920;DHT22;29578;51.946;5.874;2022-08-07T00:39:03;15.40;63.60
43920;DHT22;29578;51.946;5.874;2022-08-07T00:41:32;15.30;63.60
43920;DHT22;29578;51.946;5.874;2022-08-07T00:43:58;15.30;63.80
43920;DHT22;29578;51.946;5.874;2022-08-07T00:46:23;15.30;63.90
43920;DHT22;29578;51.946;5.874;2022-08-07T00:48:50;15.20;63.90
43920;DHT22;29578;51.946;5.874;2022-08-07T00:51:16;15.20;64.00
43920;DHT22;29578;51.946;5.874;2022-08-07T00:53:42;15.10;64.00
43920;DHT22;29578;51.946;5.874;2022-08-07T00:56:08;15.10;64.20
43920;DHT22;29578;51.946;5.874;2022-08-07T00:58:39;15.00;64.30
43920;DHT22;29578;51.946;5.874;2022-08-07T01:01:05;15.00;64.50
43920;DHT22;29578;51.946;5.874;2022-08-07T01:03:31;14.90;64.60
43920;DHT22;29578;51.946;5.874;2022-08-07T01:05:57;14.80;64.70
43920;DHT22;29578;51.946;5.874;2022-08-07T01:08:23;14.80;64.80
43920;DHT22;29578;51.946;5.874;2022-08-07T01:10:49;14.80;64.90
43920;DHT22;29578;51.946;5.874;2022-08-07T01:13:15;14.70;65.00
43920;DHT22;29578;51.946;5.874;2022-08-07T01:15:41;14.70;65.10
43920;DHT22;29578;51.946;5.874;2022-08-07T01:18:07;14.60;65.20
43920;DHT22;29578;51.946;5.874;2022-08-07T01:20:37;14.70;65.30
43920;DHT22;29578;51.946;5.874;2022-08-07T01:23:06;14.60;65.40
43920;DHT22;29578;51.946;5.874;2022-08-07T01:25:32;14.50;65.40
43920;DHT22;29578;51.946;5.874;2022-08-07T01:27:58;14.50;65.60
43920;DHT22;29578;51.946;5.874;2022-08-07T01:30:25;14.50;65.60
43920;DHT22;29578;51.946;5.874;2022-08-07T01:32:51;14.50;65.70
43920;DHT22;29578;51.946;5.874;2022-08-07T01:35:17;14.40;65.70
43920;DHT22;29578;51.946;5.874;2022-08-07T01:37:43;14.40;65.90
43920;DHT22;29578;51.946;5.874;2022-08-07T01:40:10;14.30;65.90
43920;DHT22;29578;51.946;5.874;2022-08-07T01:42:37;14.30;66.00
43920;DHT22;29578;51.946;5.874;2022-08-07T01:45:05;14.30;66.10
43920;DHT22;29578;51.946;5.874;2022-08-07T01:47:31;14.20;66.20
43920;DHT22;29578;51.946;5.874;2022-08-07T01:49:56;14.20;66.20
43920;DHT22;29578;51.946;5.874;2022-08-07T01:52:25;14.20;66.30
43920;DHT22;29578;51.946;5.874;2022-08-07T01:54:54;14.10;66.40
43920;DHT22;29578;51.946;5.874;2022-08-07T01:57:24;14.20;66.50
43920;DHT22;29578;51.946;5.874;2022-08-07T01:59:56;14.10;66.50
43920;DHT22;29578;51.946;5.874;2022-08-07T02:02:31;14.00;66.50
43920;DHT22;29578;51.946;5.874;2022-08-07T02:05:03;14.00;66.70
43920;DHT22;29578;51.946;5.874;2022-08-07T02:07:33;14.00;66.80
43920;DHT22;29578;51.946;5.874;2022-08-07T02:10:03;14.00;66.80
43920;DHT22;29578;51.946;5.874;2022-08-07T02:12:33;14.00;66.90
43920;DHT22;29578;51.946;5.874;2022-08-07T02:15:01;13.90;67.00
43920;DHT22;29578;51.946;5.874;2022-08-07T02:17:28;14.00;67.10
43920;DHT22;29578;51.946;5.874;2022-08-07T02:19:55;13.90;67.10
43920;DHT22;29578;51.946;5.874;2022-08-07T02:22:23;13.90;67.20
43920;DHT22;29578;51.946;5.874;2022-08-07T02:24:52;13.80;67.20
43920;DHT22;29578;51.946;5.874;2022-08-07T02:27:24;13.80;67.30
43920;DHT22;29578;51.946;5.874;2022-08-07T02:29:51;13.80;67.30
43920;DHT22;29578;51.946;5.874;2022-08-07T02:32:18;13.80;67.30
43920;DHT22;29578;51.946;5.874;2022-08-07T02:34:45;13.80;67.40
43920;DHT22;29578;51.946;5.874;2022-08-07T02:37:13;13.70;67.50
43920;DHT22;29578;51.946;5.874;2022-08-07T02:39:42;13.70;67.60
43920;DHT22;29578;51.946;5.874;2022-08-07T02:42:09;13.70;67.60
43920;DHT22;29578;51.946;5.874;2022-08-07T02:44:36;13.70;67.70
43920;DHT22;29578;51.946;5.874;2022-08-07T02:47:04;13.70;67.70
43920;DHT22;29578;51.946;5.874;2022-08-07T02:49:31;13.60;67.80
43920;DHT22;29578;51.946;5.874;2022-08-07T02:51:58;13.60;67.90
43920;DHT22;29578;51.946;5.874;2022-08-07T02:54:28;13.60;67.90
43920;DHT22;29578;51.946;5.874;2022-08-07T02:56:56;13.70;68.10
43920;DHT22;29578;51.946;5.874;2022-08-07T02:59:25;13.60;68.10
43920;DHT22;29578;51.946;5.874;2022-08-07T03:01:52;13.60;68.10
43920;DHT22;29578;51.946;5.874;2022-08-07T03:04:20;13.50;68.20
43920;DHT22;29578;51.946;5.874;2022-08-07T03:06:47;13.40;68.20
43920;DHT22;29578;51.946;5.874;2022-08-07T03:09:13;13.50;68.30
43920;DHT22;29578;51.946;5.874;2022-08-07T03:11:40;13.40;68.30
43920;DHT22;29578;51.946;5.874;2022-08-07T03:14:07;13.40;68.40
43920;DHT22;29578;51.946;5.874;2022-08-07T03:16:34;13.40;68.40
43920;DHT22;29578;51.946;5.874;2022-08-07T03:19:00;13.40;68.60
43920;DHT22;29578;51.946;5.874;2022-08-07T03:21:27;13.40;68.60
43920;DHT22;29578;51.946;5.874;2022-08-07T03:23:54;13.30;68.60
43920;DHT22;29578;51.946;5.874;2022-08-07T03:26:23;13.30;68.70
43920;DHT22;29578;51.946;5.874;2022-08-07T03:28:50;13.40;68.80
43920;DHT22;29578;51.946;5.874;2022-08-07T03:31:18;13.30;68.80
43920;DHT22;29578;51.946;5.874;2022-08-07T03:33:49;13.30;68.80
43920;DHT22;29578;51.946;5.874;2022-08-07T03:36:16;13.40;68.70
43920;DHT22;29578;51.946;5.874;2022-08-07T03:38:44;13.40;68.70
43920;DHT22;29578;51.946;5.874;2022-08-07T03:41:11;13.40;68.70
43920;DHT22;29578;51.946;5.874;2022-08-07T03:43:38;13.40;68.70
43920;DHT22;29578;51.946;5.874;2022-08-07T03:46:05;13.40;68.70
43920;DHT22;29578;51.946;5.874;2022-08-07T03:48:33;13.30;68.70
43920;DHT22;29578;51.946;5.874;2022-08-07T03:51:01;13.30;68.80
43920;DHT22;29578;51.946;5.874;2022-08-07T03:53:27;13.30;68.80
43920;DHT22;29578;51.946;5.874;2022-08-07T03:55:54;13.30;68.80
43920;DHT22;29578;51.946;5.874;2022-08-07T03:58:22;13.30;68.90
43920;DHT22;29578;51.946;5.874;2022-08-07T04:00:49;13.30;69.00
43920;DHT22;29578;51.946;5.874;2022-08-07T04:03:17;13.20;69.00
43920;DHT22;29578;51.946;5.874;2022-08-07T04:05:43;13.20;69.00
43920;DHT22;29578;51.946;5.874;2022-08-07T04:08:10;13.30;69.20
43920;DHT22;29578;51.946;5.874;2022-08-07T04:10:38;13.20;69.20
43920;DHT22;29578;51.946;5.874;2022-08-07T04:13:04;13.20;69.20
43920;DHT22;29578;51.946;5.874;2022-08-07T04:15:32;13.10;69.20
43920;DHT22;29578;51.946;5.874;2022-08-07T04:18:00;13.10;69.30
43920;DHT22;29578;51.946;5.874;2022-08-07T04:20:26;13.10;69.30
43920;DHT22;29578;51.946;5.874;2022-08-07T04:22:53;13.20;69.50
43920;DHT22;29578;51.946;5.874;2022-08-07T04:25:21;13.10;69.50
43920;DHT22;29578;51.946;5.874;2022-08-07T04:27:47;13.10;69.50
43920;DHT22;29578;51.946;5.874;2022-08-07T04:30:13;13.00;69.50
43920;DHT22;29578;51.946;5.874;2022-08-07T04:32:39;13.10;69.60
43920;DHT22;29578;51.946;5.874;2022-08-07T04:35:06;13.10;69.70
43920;DHT22;29578;51.946;5.874;2022-08-07T04:37:33;13.10;69.70
43920;DHT22;29578;51.946;5.874;2022-08-07T04:40:00;13.00;69.70
43920;DHT22;29578;51.946;5.874;2022-08-07T04:42:26;13.00;69.70
43920;DHT22;29578;51.946;5.874;2022-08-07T04:44:56;13.00;69.70
43920;DHT22;29578;51.946;5.874;2022-08-07T04:47:34;13.10;69.90
43920;DHT22;29578;51.946;5.874;2022-08-07T04:50:09;13.00;69.90
43920;DHT22;29578;51.946;5.874;2022-08-07T04:52:50;13.10;70.00
43920;DHT22;29578;51.946;5.874;2022-08-07T04:55:21;13.00;69.90
43920;DHT22;29578;51.946;5.874;2022-08-07T05:00:52;13.10;69.80
43920;DHT22;29578;51.946;5.874;2022-08-07T05:03:40;13.10;69.70
43920;DHT22;29578;51.946;5.874;2022-08-07T05:06:13;13.10;69.80
43920;DHT22;29578;51.946;5.874;2022-08-07T05:08:48;13.10;69.80
43920;DHT22;29578;51.946;5.874;2022-08-07T05:11:23;13.10;69.90
43920;DHT22;29578;51.946;5.874;2022-08-07T05:14:02;13.10;69.90
43920;DHT22;29578;51.946;5.874;2022-08-07T05:16:30;13.10;69.90
43920;DHT22;29578;51.946;5.874;2022-08-07T05:19:01;13.30;69.80
43920;DHT22;29578;51.946;5.874;2022-08-07T05:21:29;13.20;69.60
43920;DHT22;29578;51.946;5.874;2022-08-07T05:24:00;13.30;69.70
43920;DHT22;29578;51.946;5.874;2022-08-07T05:26:28;13.30;69.70
43920;DHT22;29578;51.946;5.874;2022-08-07T05:28:59;13.40;69.70
43920;DHT22;29578;51.946;5.874;2022-08-07T05:31:28;13.40;69.70
43920;DHT22;29578;51.946;5.874;2022-08-07T05:33:58;13.40;69.70
43920;DHT22;29578;51.946;5.874;2022-08-07T05:36:25;13.50;69.70
43920;DHT22;29578;51.946;5.874;2022-08-07T05:38:52;13.40;69.50
43920;DHT22;29578;51.946;5.874;2022-08-07T05:41:20;13.60;69.60
43920;DHT22;29578;51.946;5.874;2022-08-07T05:43:49;13.50;69.40
43920;DHT22;29578;51.946;5.874;2022-08-07T05:46:18;13.60;69.40
43920;DHT22;29578;51.946;5.874;2022-08-07T05:48:45;13.70;69.50
43920;DHT22;29578;51.946;5.874;2022-08-07T05:51:11;13.80;69.50
43920;DHT22;29578;51.946;5.874;2022-08-07T05:53:39;13.80;69.30
43920;DHT22;29578;51.946;5.874;2022-08-07T05:56:05;13.90;69.30
43920;DHT22;29578;51.946;5.874;2022-08-07T05:58:34;14.00;69.20
43920;DHT22;29578;51.946;5.874;2022-08-07T06:01:00;14.10;69.10
43920;DHT22;29578;51.946;5.874;2022-08-07T06:03:28;14.10;69.10
43920;DHT22;29578;51.946;5.874;2022-08-07T06:05:55;14.10;69.00
43920;DHT22;29578;51.946;5.874;2022-08-07T06:08:22;14.20;69.80
43920;DHT22;29578;51.946;5.874;2022-08-07T06:10:49;14.20;69.10
43920;DHT22;29578;51.946;5.874;2022-08-07T06:13:15;14.30;69.00
43920;DHT22;29578;51.946;5.874;2022-08-07T06:15:41;14.40;68.90
43920;DHT22;29578;51.946;5.874;2022-08-07T06:18:08;14.40;68.70
43920;DHT22;29578;51.946;5.874;2022-08-07T06:20:35;14.50;68.60
43920;DHT22;29578;51.946;5.874;2022-08-07T06:23:03;14.60;68.60
43920;DHT22;29578;51.946;5.874;2022-08-07T06:25:30;14.60;68.60
43920;DHT22;29578;51.946;5.874;2022-08-07T06:28:02;14.60;68.60
43920;DHT22;29578;51.946;5.874;2022-08-07T06:30:28;14.70;68.60
43920;DHT22;29578;51.946;5.874;2022-08-07T06:32:53;14.80;68.50
43920;DHT22;29578;51.946;5.874;2022-08-07T06:35:19;14.90;68.50
43920;DHT22;29578;51.946;5.874;2022-08-07T06:37:45;14.90;68.50
43920;DHT22;29578;51.946;5.874;2022-08-07T06:40:11;14.90;68.40
43920;DHT22;29578;51.946;5.874;2022-08-07T06:42:38;15.00;68.40
43920;DHT22;29578;51.946;5.874;2022-08-07T06:45:09;15.00;68.40
43920;DHT22;29578;51.946;5.874;2022-08-07T06:47:36;15.10;68.40
43920;DHT22;29578;51.946;5.874;2022-08-07T06:50:02;15.10;68.40
43920;DHT22;29578;51.946;5.874;2022-08-07T06:52:32;15.20;68.30
43920;DHT22;29578;51.946;5.874;2022-08-07T06:54:59;15.30;68.30
43920;DHT22;29578;51.946;5.874;2022-08-07T06:57:24;15.30;68.10
43920;DHT22;29578;51.946;5.874;2022-08-07T06:59:51;15.50;68.00
43920;DHT22;29578;51.946;5.874;2022-08-07T07:02:20;15.60;67.90
43920;DHT22;29578;51.946;5.874;2022-08-07T07:04:47;15.70;67.70
43920;DHT22;29578;51.946;5.874;2022-08-07T07:07:13;15.80;67.60
43920;DHT22;29578;51.946;5.874;2022-08-07T07:09:47;15.80;67.40
43920;DHT22;29578;51.946;5.874;2022-08-07T07:12:22;15.90;68.00
43920;DHT22;29578;51.946;5.874;2022-08-07T07:15:08;16.00;67.30
43920;DHT22;29578;51.946;5.874;2022-08-07T07:20:22;16.10;67.20
43920;DHT22;29578;51.946;5.874;2022-08-07T07:22:49;16.20;67.10
43920;DHT22;29578;51.946;5.874;2022-08-07T07:25:17;16.20;67.00
43920;DHT22;29578;51.946;5.874;2022-08-07T07:27:49;16.30;66.90
43920;DHT22;29578;51.946;5.874;2022-08-07T07:30:19;16.50;66.80
43920;DHT22;29578;51.946;5.874;2022-08-07T07:32:47;16.60;66.50
43920;DHT22;29578;51.946;5.874;2022-08-07T07:35:13;16.80;66.30
43920;DHT22;29578;51.946;5.874;2022-08-07T07:37:41;16.90;66.10
43920;DHT22;29578;51.946;5.874;2022-08-07T07:40:14;17.00;65.80
43920;DHT22;29578;51.946;5.874;2022-08-07T07:42:42;17.20;65.70
43920;DHT22;29578;51.946;5.874;2022-08-07T07:45:09;17.30;65.50
43920;DHT22;29578;51.946;5.874;2022-08-07T07:47:40;17.40;65.30
43920;DHT22;29578;51.946;5.874;2022-08-07T07:50:07;17.50;65.10
43920;DHT22;29578;51.946;5.874;2022-08-07T07:52:35;17.70;65.00
43920;DHT22;29578;51.946;5.874;2022-08-07T07:55:03;17.80;64.80
43920;DHT22;29578;51.946;5.874;2022-08-07T07:57:31;17.90;64.70
43920;DHT22;29578;51.946;5.874;2022-08-07T08:00:00;18.10;64.40
43920;DHT22;29578;51.946;5.874;2022-08-07T08:02:28;18.30;64.10
43920;DHT22;29578;51.946;5.874;2022-08-07T08:04:55;18.50;63.80
43920;DHT22;29578;51.946;5.874;2022-08-07T08:07:23;18.70;63.60
43920;DHT22;29578;51.946;5.874;2022-08-07T08:09:51;18.90;63.40
43920;DHT22;29578;51.946;5.874;2022-08-07T08:12:18;19.00;62.90
43920;DHT22;29578;51.946;5.874;2022-08-07T08:14:44;19.30;62.80
43920;DHT22;29578;51.946;5.874;2022-08-07T08:17:12;19.40;62.50
43920;DHT22;29578;51.946;5.874;2022-08-07T08:19:38;19.60;62.40
43920;DHT22;29578;51.946;5.874;2022-08-07T08:22:07;19.80;62.20
43920;DHT22;29578;51.946;5.874;2022-08-07T08:24:46;20.00;62.10
43920;DHT22;29578;51.946;5.874;2022-08-07T08:27:28;20.20;61.90
43920;DHT22;29578;51.946;5.874;2022-08-07T08:30:09;20.40;61.70
43920;DHT22;29578;51.946;5.874;2022-08-07T08:32:42;20.60;61.40
43920;DHT22;29578;51.946;5.874;2022-08-07T08:35:12;20.80;61.20
43920;DHT22;29578;51.946;5.874;2022-08-07T08:37:40;21.00;61.00
43920;DHT22;29578;51.946;5.874;2022-08-07T08:40:12;21.20;60.80
43920;DHT22;29578;51.946;5.874;2022-08-07T08:42:45;21.40;60.50
43920;DHT22;29578;51.946;5.874;2022-08-07T08:45:19;21.50;60.20
43920;DHT22;29578;51.946;5.874;2022-08-07T08:50:57;21.70;60.10
43920;DHT22;29578;51.946;5.874;2022-08-07T08:53:50;21.70;60.10
43920;DHT22;29578;51.946;5.874;2022-08-07T08:56:25;21.90;60.10
43920;DHT22;29578;51.946;5.874;2022-08-07T08:59:02;21.90;60.00
43920;DHT22;29578;51.946;5.874;2022-08-07T09:01:49;22.00;60.00
43920;DHT22;29578;51.946;5.874;2022-08-07T09:04:43;22.00;60.00
43920;DHT22;29578;51.946;5.874;2022-08-07T09:07:18;22.00;60.00
43920;DHT22;29578;51.946;5.874;2022-08-07T09:09:58;22.10;59.90
43920;DHT22;29578;51.946;5.874;2022-08-07T09:12:38;22.30;59.70
43920;DHT22;29578;51.946;5.874;2022-08-07T09:15:27;22.40;59.30
43920;DHT22;29578;51.946;5.874;2022-08-07T09:18:15;22.70;58.90
43920;DHT22;29578;51.946;5.874;2022-08-07T09:20:58;22.80;58.60
43920;DHT22;29578;51.946;5.874;2022-08-07T09:23:54;23.00;58.30
43920;DHT22;29578;51.946;5.874;2022-08-07T09:29:16;23.10;58.10
43920;DHT22;29578;51.946;5.874;2022-08-07T09:32:05;23.20;58.10
43920;DHT22;29578;51.946;5.874;2022-08-07T09:37:50;23.40;57.70
43920;DHT22;29578;51.946;5.874;2022-08-07T09:40:27;23.40;57.30
43920;DHT22;29578;51.946;5.874;2022-08-07T09:43:12;23.50;57.50
43920;DHT22;29578;51.946;5.874;2022-08-07T09:45:56;23.50;56.80
43920;DHT22;29578;51.946;5.874;2022-08-07T09:48:35;23.40;57.10
43920;DHT22;29578;51.946;5.874;2022-08-07T09:51:20;23.40;57.20
43920;DHT22;29578;51.946;5.874;2022-08-07T09:53:56;23.50;57.80
43920;DHT22;29578;51.946;5.874;2022-08-07T09:56:42;23.50;57.20
43920;DHT22;29578;51.946;5.874;2022-08-07T10:02:38;23.80;56.80
43920;DHT22;29578;51.946;5.874;2022-08-07T10:05:31;23.80;56.40
43920;DHT22;29578;51.946;5.874;2022-08-07T10:11:10;23.90;56.10
43920;DHT22;29578;51.946;5.874;2022-08-07T10:13:51;24.00;56.10
43920;DHT22;29578;51.946;5.874;2022-08-07T10:16:33;24.10;55.80
43920;DHT22;29578;51.946;5.874;2022-08-07T10:25:27;24.40;55.20
43920;DHT22;29578;51.946;5.874;2022-08-07T10:28:15;24.50;55.00
43920;DHT22;29578;51.946;5.874;2022-08-07T10:33:56;24.50;55.10
43920;DHT22;29578;51.946;5.874;2022-08-07T10:36:39;24.60;55.10
43920;DHT22;29578;51.946;5.874;2022-08-07T10:39:26;24.60;54.90
43920;DHT22;29578;51.946;5.874;2022-08-07T10:42:01;24.60;54.80
43920;DHT22;29578;51.946;5.874;2022-08-07T10:44:51;24.50;54.80
43920;DHT22;29578;51.946;5.874;2022-08-07T10:50:16;24.60;54.60
43920;DHT22;29578;51.946;5.874;2022-08-07T10:52:52;24.60;54.50
43920;DHT22;29578;51.946;5.874;2022-08-07T10:55:26;24.50;54.40
43920;DHT22;29578;51.946;5.874;2022-08-07T10:58:22;24.50;54.50
43920;DHT22;29578;51.946;5.874;2022-08-07T11:01:02;24.60;54.20
43920;DHT22;29578;51.946;5.874;2022-08-07T11:03:37;24.60;54.10
43920;DHT22;29578;51.946;5.874;2022-08-07T11:06:25;24.70;53.80
43920;DHT22;29578;51.946;5.874;2022-08-07T11:09:02;24.70;53.40
43920;DHT22;29578;51.946;5.874;2022-08-07T11:11:34;24.80;53.30
43920;DHT22;29578;51.946;5.874;2022-08-07T11:14:09;24.90;53.20
43920;DHT22;29578;51.946;5.874;2022-08-07T11:16:57;25.00;52.90
43920;DHT22;29578;51.946;5.874;2022-08-07T11:19:39;25.00;52.40
43920;DHT22;29578;51.946;5.874;2022-08-07T11:22:24;24.90;52.70
43920;DHT22;29578;51.946;5.874;2022-08-07T11:25:03;24.90;52.50
43920;DHT22;29578;51.946;5.874;2022-08-07T11:30:25;25.00;52.40
43920;DHT22;29578;51.946;5.874;2022-08-07T11:33:01;25.10;52.20
43920;DHT22;29578;51.946;5.874;2022-08-07T11:35:42;25.20;51.90
43920;DHT22;29578;51.946;5.874;2022-08-07T11:38:18;25.10;51.80
43920;DHT22;29578;51.946;5.874;2022-08-07T11:40:57;25.20;51.80
43920;DHT22;29578;51.946;5.874;2022-08-07T11:43:28;25.20;51.70
43920;DHT22;29578;51.946;5.874;2022-08-07T11:52:28;25.30;51.40
43920;DHT22;29578;51.946;5.874;2022-08-07T11:55:24;25.20;51.30
43920;DHT22;29578;51.946;5.874;2022-08-07T11:57:53;25.20;51.30
43920;DHT22;29578;51.946;5.874;2022-08-07T12:00:31;25.20;51.40
43920;DHT22;29578;51.946;5.874;2022-08-07T12:03:33;25.20;51.30
43920;DHT22;29578;51.946;5.874;2022-08-07T12:06:37;25.30;51.30
43920;DHT22;29578;51.946;5.874;2022-08-07T12:09:18;25.30;51.20
43920;DHT22;29578;51.946;5.874;2022-08-07T12:12:11;25.40;51.20
43920;DHT22;29578;51.946;5.874;2022-08-07T12:14:48;25.50;50.80
43920;DHT22;29578;51.946;5.874;2022-08-07T12:17:18;25.50;50.80
43920;DHT22;29578;51.946;5.874;2022-08-07T12:20:03;25.40;50.90
43920;DHT22;29578;51.946;5.874;2022-08-07T12:22:43;25.30;50.90
43920;DHT22;29578;51.946;5.874;2022-08-07T12:25:19;25.20;51.10
43920;DHT22;29578;51.946;5.874;2022-08-07T12:28:14;25.20;51.20
43920;DHT22;29578;51.946;5.874;2022-08-07T12:30:43;25.20;51.20
43920;DHT22;29578;51.946;5.874;2022-08-07T12:33:13;25.20;51.20
43920;DHT22;29578;51.946;5.874;2022-08-07T12:35:44;25.30;51.20
43920;DHT22;29578;51.946;5.874;2022-08-07T12:38:12;25.40;51.10
43920;DHT22;29578;51.946;5.874;2022-08-07T12:40:40;25.30;51.00
43920;DHT22;29578;51.946;5.874;2022-08-07T12:43:09;25.30;51.00
43920;DHT22;29578;51.946;5.874;2022-08-07T12:46:01;25.20;51.00
43920;DHT22;29578;51.946;5.874;2022-08-07T12:48:38;25.20;50.90
43920;DHT22;29578;51.946;5.874;2022-08-07T12:51:12;25.10;51.00
43920;DHT22;29578;51.946;5.874;2022-08-07T12:53:48;25.10;51.00
43920;DHT22;29578;51.946;5.874;2022-08-07T12:59:02;25.00;51.10
43920;DHT22;29578;51.946;5.874;2022-08-07T13:07:38;25.00;51.00
43920;DHT22;29578;51.946;5.874;2022-08-07T13:10:28;25.10;50.90
43920;DHT22;29578;51.946;5.874;2022-08-07T13:13:26;25.10;50.70
43920;DHT22;29578;51.946;5.874;2022-08-07T13:15:59;25.10;50.60
43920;DHT22;29578;51.946;5.874;2022-08-07T13:18:38;25.00;50.60
43920;DHT22;29578;51.946;5.874;2022-08-07T13:21:20;24.90;50.60
43920;DHT22;29578;51.946;5.874;2022-08-07T13:23:52;24.90;50.80
43920;DHT22;29578;51.946;5.874;2022-08-07T13:26:25;24.90;50.90
43920;DHT22;29578;51.946;5.874;2022-08-07T13:31:51;24.90;50.60
43920;DHT22;29578;51.946;5.874;2022-08-07T13:34:42;24.90;50.60
43920;DHT22;29578;51.946;5.874;2022-08-07T13:37:40;24.90;50.60
43920;DHT22;29578;51.946;5.874;2022-08-07T13:40:18;24.90;50.50
43920;DHT22;29578;51.946;5.874;2022-08-07T13:42:47;25.10;50.30
43920;DHT22;29578;51.946;5.874;2022-08-07T13:45:14;25.10;50.60
43920;DHT22;29578;51.946;5.874;2022-08-07T13:47:41;24.90;50.10
43920;DHT22;29578;51.946;5.874;2022-08-07T13:50:08;25.00;50.20
43920;DHT22;29578;51.946;5.874;2022-08-07T13:52:38;24.90;50.10
43920;DHT22;29578;51.946;5.874;2022-08-07T13:55:11;24.90;50.00
43920;DHT22;29578;51.946;5.874;2022-08-07T13:57:39;24.80;50.00
43920;DHT22;29578;51.946;5.874;2022-08-07T14:00:07;25.00;50.10
43920;DHT22;29578;51.946;5.874;2022-08-07T14:02:35;25.00;49.90
43920;DHT22;29578;51.946;5.874;2022-08-07T14:05:04;25.10;49.80
43920;DHT22;29578;51.946;5.874;2022-08-07T14:07:36;25.10;49.70
43920;DHT22;29578;51.946;5.874;2022-08-07T14:10:03;25.10;49.60
43920;DHT22;29578;51.946;5.874;2022-08-07T14:12:49;25.00;49.50
43920;DHT22;29578;51.946;5.874;2022-08-07T14:15:38;25.10;49.40
43920;DHT22;29578;51.946;5.874;2022-08-07T14:18:12;25.10;49.50
43920;DHT22;29578;51.946;5.874;2022-08-07T14:20:41;25.00;49.50
43920;DHT22;29578;51.946;5.874;2022-08-07T14:23:17;25.10;49.40
43920;DHT22;29578;51.946;5.874;2022-08-07T14:25:46;25.00;49.30
43920;DHT22;29578;51.946;5.874;2022-08-07T14:28:14;25.00;49.30
43920;DHT22;29578;51.946;5.874;2022-08-07T14:30:46;25.10;49.20
43920;DHT22;29578;51.946;5.874;2022-08-07T14:33:15;25.10;49.10
43920;DHT22;29578;51.946;5.874;2022-08-07T14:35:42;25.00;49.00
43920;DHT22;29578;51.946;5.874;2022-08-07T14:38:08;25.00;49.10
43920;DHT22;29578;51.946;5.874;2022-08-07T14:40:35;24.90;49.10
43920;DHT22;29578;51.946;5.874;2022-08-07T14:43:05;24.90;49.10
43920;DHT22;29578;51.946;5.874;2022-08-07T14:45:45;24.90;48.90
43920;DHT22;29578;51.946;5.874;2022-08-07T14:48:12;24.90;48.80
43920;DHT22;29578;51.946;5.874;2022-08-07T14:50:46;25.00;48.80
43920;DHT22;29578;51.946;5.874;2022-08-07T14:53:12;25.00;48.80
43920;DHT22;29578;51.946;5.874;2022-08-07T14:55:39;25.00;48.60
43920;DHT22;29578;51.946;5.874;2022-08-07T14:58:10;25.00;48.60
43920;DHT22;29578;51.946;5.874;2022-08-07T15:00:39;25.00;48.60
43920;DHT22;29578;51.946;5.874;2022-08-07T15:03:07;25.10;48.50
43920;DHT22;29578;51.946;5.874;2022-08-07T15:05:34;25.20;48.30
43920;DHT22;29578;51.946;5.874;2022-08-07T15:08:04;25.30;48.20
43920;DHT22;29578;51.946;5.874;2022-08-07T15:10:35;25.40;47.90
43920;DHT22;29578;51.946;5.874;2022-08-07T15:13:09;25.50;47.90
43920;DHT22;29578;51.946;5.874;2022-08-07T15:15:43;25.50;47.80
43920;DHT22;29578;51.946;5.874;2022-08-07T15:18:14;25.50;47.90
43920;DHT22;29578;51.946;5.874;2022-08-07T15:20:44;25.40;47.90
43920;DHT22;29578;51.946;5.874;2022-08-07T15:23:14;25.30;47.90
43920;DHT22;29578;51.946;5.874;2022-08-07T15:25:50;25.30;48.00
43920;DHT22;29578;51.946;5.874;2022-08-07T15:28:21;25.30;48.00
43920;DHT22;29578;51.946;5.874;2022-08-07T15:30:49;25.40;48.00
43920;DHT22;29578;51.946;5.874;2022-08-07T15:33:17;25.50;47.80
43920;DHT22;29578;51.946;5.874;2022-08-07T15:35:50;25.50;47.80
43920;DHT22;29578;51.946;5.874;2022-08-07T15:38:18;25.60;47.80
43920;DHT22;29578;51.946;5.874;2022-08-07T15:40:46;25.60;47.70
43920;DHT22;29578;51.946;5.874;2022-08-07T15:43:16;25.60;47.70
43920;DHT22;29578;51.946;5.874;2022-08-07T15:45:45;25.60;47.70
43920;DHT22;29578;51.946;5.874;2022-08-07T15:48:22;25.60;47.80
43920;DHT22;29578;51.946;5.874;2022-08-07T15:50:51;25.50;47.80
43920;DHT22;29578;51.946;5.874;2022-08-07T15:53:40;25.50;47.70
43920;DHT22;29578;51.946;5.874;2022-08-07T15:56:08;25.40;47.80
43920;DHT22;29578;51.946;5.874;2022-08-07T15:58:50;25.30;47.90
43920;DHT22;29578;51.946;5.874;2022-08-07T16:01:29;25.30;47.80
43920;DHT22;29578;51.946;5.874;2022-08-07T16:03:59;25.30;47.90
43920;DHT22;29578;51.946;5.874;2022-08-07T16:06:31;25.30;47.90
43920;DHT22;29578;51.946;5.874;2022-08-07T16:09:02;25.20;47.80
43920;DHT22;29578;51.946;5.874;2022-08-07T16:11:51;25.20;47.80
43920;DHT22;29578;51.946;5.874;2022-08-07T16:20:37;25.00;47.60
43920;DHT22;29578;51.946;5.874;2022-08-07T16:23:26;24.90;47.60
43920;DHT22;29578;51.946;5.874;2022-08-07T16:26:02;24.80;47.80
43920;DHT22;29578;51.946;5.874;2022-08-07T16:28:51;24.80;47.80
43920;DHT22;29578;51.946;5.874;2022-08-07T16:34:07;24.80;47.70
43920;DHT22;29578;51.946;5.874;2022-08-07T16:36:51;24.80;47.70
43920;DHT22;29578;51.946;5.874;2022-08-07T16:42:33;24.80;47.50
43920;DHT22;29578;51.946;5.874;2022-08-07T16:45:29;24.70;47.50
43920;DHT22;29578;51.946;5.874;2022-08-07T16:48:16;24.70;47.50
43920;DHT22;29578;51.946;5.874;2022-08-07T16:51:07;24.70;47.30
43920;DHT22;29578;51.946;5.874;2022-08-07T16:54:10;24.70;47.30
43920;DHT22;29578;51.946;5.874;2022-08-07T16:59:49;24.60;47.40
43920;DHT22;29578;51.946;5.874;2022-08-07T17:02:40;24.60;47.40
43920;DHT22;29578;51.946;5.874;2022-08-07T17:08:07;24.40;47.50
43920;DHT22;29578;51.946;5.874;2022-08-07T17:13:37;24.30;47.60
43920;DHT22;29578;51.946;5.874;2022-08-07T17:16:20;24.30;47.50